createdAt,value
2019-01-06T00:00:47.279Z,0
2019-01-06T00:01:45.946Z,0
2019-01-06T00:02:44.531Z,0
2019-01-06T00:03:43.322Z,0
2019-01-06T00:04:41.957Z,0
2019-01-06T00:05:40.530Z,0
2019-01-06T00:06:39.192Z,0
2019-01-06T00:07:37.770Z,0
2019-01-06T00:08:36.338Z,0
2019-01-06T00:09:34.877Z,0
2019-01-06T00:10:33.902Z,0
2019-01-06T00:11:32.524Z,0
2019-01-06T00:12:31.276Z,0
2019-01-06T00:13:29.895Z,0
2019-01-06T00:14:28.367Z,0
2019-01-06T00:15:26.987Z,0
2019-01-06T00:16:25.811Z,0
2019-01-06T00:17:25.549Z,0
2019-01-06T00:18:24.160Z,0
2019-01-06T00:19:22.702Z,0
2019-01-06T00:20:21.383Z,0
2019-01-06T00:21:19.963Z,0
2019-01-06T00:22:18.531Z,0
2019-01-06T00:23:17.272Z,0
2019-01-06T00:24:16.071Z,0
2019-01-06T00:25:14.656Z,0
2019-01-06T00:26:13.424Z,0
2019-01-06T00:27:12.008Z,0
2019-01-06T00:28:10.545Z,0
2019-01-06T00:29:09.029Z,0
2019-01-06T00:30:07.596Z,0
2019-01-06T00:31:06.212Z,0
2019-01-06T00:32:04.699Z,0
2019-01-06T00:33:03.199Z,0
2019-01-06T00:34:01.774Z,0
2019-01-06T00:35:00.356Z,0
2019-01-06T00:35:58.941Z,0
2019-01-06T00:36:57.763Z,0
2019-01-06T00:37:56.328Z,0
2019-01-06T00:38:54.887Z,0
2019-01-06T00:39:53.646Z,0
2019-01-06T00:40:52.221Z,0
2019-01-06T00:43:32.255Z,0
2019-01-06T00:44:30.813Z,0
2019-01-06T00:45:29.265Z,0
2019-01-06T00:46:27.787Z,0
2019-01-06T00:47:26.408Z,0
2019-01-06T00:48:24.977Z,0
2019-01-06T00:49:23.770Z,0
2019-01-06T00:50:22.391Z,0
2019-01-06T00:51:21.007Z,0
2019-01-06T00:52:19.821Z,0
2019-01-06T00:53:18.379Z,0
2019-01-06T00:54:16.987Z,0
2019-01-06T00:55:15.884Z,0
2019-01-06T00:56:14.429Z,0
2019-01-06T00:57:13.107Z,0
2019-01-06T00:58:11.877Z,0
2019-01-06T00:59:10.499Z,0
2019-01-06T01:00:09.178Z,0
2019-01-06T01:01:07.961Z,0
2019-01-06T01:02:06.515Z,0
2019-01-06T01:03:05.258Z,0
2019-01-06T01:04:03.850Z,0
2019-01-06T01:05:02.411Z,0
2019-01-06T01:06:01.003Z,0
2019-01-06T01:06:59.535Z,0
2019-01-06T01:07:58.222Z,0
2019-01-06T01:08:56.806Z,0
2019-01-06T01:11:20.517Z,0
2019-01-06T01:12:19.358Z,0
2019-01-06T01:13:17.917Z,0
2019-01-06T01:14:16.439Z,0
2019-01-06T01:15:15.010Z,0
2019-01-06T01:16:13.575Z,0
2019-01-06T01:17:12.195Z,0
2019-01-06T01:18:10.733Z,0
2019-01-06T01:19:09.678Z,0
2019-01-06T01:20:08.276Z,0
2019-01-06T01:21:06.991Z,0
2019-01-06T01:22:05.602Z,0
2019-01-06T01:23:04.447Z,0
2019-01-06T01:24:03.333Z,0
2019-01-06T01:25:02.062Z,0
2019-01-06T01:26:00.503Z,0
2019-01-06T01:26:59.134Z,0
2019-01-06T01:27:57.704Z,0
2019-01-06T01:28:56.258Z,0
2019-01-06T01:29:54.786Z,0
2019-01-06T01:30:53.297Z,0
2019-01-06T01:31:51.892Z,0
2019-01-06T01:32:50.471Z,0
2019-01-06T01:33:49.077Z,0
2019-01-06T01:34:47.907Z,0
2019-01-06T01:35:46.463Z,0
2019-01-06T01:36:45.038Z,0
2019-01-06T01:37:43.820Z,0
2019-01-06T01:38:42.352Z,0
2019-01-06T01:39:40.972Z,0
2019-01-06T01:40:39.469Z,0
2019-01-06T01:41:38.032Z,0
2019-01-06T01:42:36.624Z,0
2019-01-06T01:43:35.233Z,0
2019-01-06T01:44:33.948Z,0
2019-01-06T01:45:32.492Z,0
2019-01-06T01:46:31.186Z,0
2019-01-06T01:47:29.852Z,0
2019-01-06T01:48:28.394Z,0
2019-01-06T01:49:26.984Z,0
2019-01-06T01:50:25.560Z,0
2019-01-06T01:51:24.069Z,0
2019-01-06T01:52:22.554Z,0
2019-01-06T01:53:21.139Z,0
2019-01-06T01:54:19.722Z,0
2019-01-06T01:55:18.237Z,0
2019-01-06T01:56:16.750Z,0
2019-01-06T01:57:15.310Z,0
2019-01-06T01:58:14.099Z,0
2019-01-06T01:59:12.622Z,0
2019-01-06T02:00:11.387Z,0
2019-01-06T02:01:10.187Z,0
2019-01-06T02:02:08.787Z,0
2019-01-06T02:03:07.360Z,0
2019-01-06T02:04:05.866Z,0
2019-01-06T02:05:04.411Z,0
2019-01-06T02:06:02.942Z,0
2019-01-06T02:07:01.986Z,0
2019-01-06T02:08:00.509Z,0
2019-01-06T02:08:59.556Z,0
2019-01-06T02:09:58.200Z,0
2019-01-06T02:10:56.715Z,0
2019-01-06T02:11:55.518Z,0
2019-01-06T02:12:54.089Z,0
2019-01-06T02:13:52.619Z,0
2019-01-06T02:14:51.525Z,0
2019-01-06T02:15:50.038Z,0
2019-01-06T02:16:48.573Z,0
2019-01-06T02:17:47.239Z,0
2019-01-06T02:18:46.110Z,0
2019-01-06T02:19:44.641Z,0
2019-01-06T02:20:43.487Z,0
2019-01-06T02:21:42.051Z,0
2019-01-06T02:22:40.610Z,0
2019-01-06T02:23:39.121Z,0
2019-01-06T02:24:37.631Z,0
2019-01-06T02:25:36.160Z,0
2019-01-06T02:26:35.023Z,0
2019-01-06T02:27:33.772Z,0
2019-01-06T02:31:12.374Z,0
2019-01-06T02:32:11.068Z,0
2019-01-06T02:33:09.664Z,0
2019-01-06T02:34:08.170Z,0
2019-01-06T02:35:06.740Z,0
2019-01-06T02:36:05.290Z,0
2019-01-06T02:38:45.959Z,0
2019-01-06T02:39:44.474Z,0
2019-01-06T02:40:43.256Z,0
2019-01-06T02:41:41.834Z,0
2019-01-06T02:42:40.338Z,0
2019-01-06T02:43:38.868Z,0
2019-01-06T02:44:37.761Z,0
2019-01-06T02:45:36.992Z,0
2019-01-06T02:46:35.755Z,0
2019-01-06T02:47:34.267Z,0
2019-01-06T02:48:32.915Z,0
2019-01-06T02:49:31.707Z,0
2019-01-06T02:50:30.279Z,0
2019-01-06T02:51:28.798Z,0
2019-01-06T02:52:27.308Z,0
2019-01-06T02:53:25.825Z,0
2019-01-06T02:54:24.319Z,0
2019-01-06T02:55:22.854Z,0
2019-01-06T02:56:21.387Z,0
2019-01-06T02:57:19.919Z,0
2019-01-06T02:58:18.433Z,0
2019-01-06T02:59:16.977Z,0
2019-01-06T03:00:15.491Z,0
2019-01-06T03:01:14.082Z,0
2019-01-06T03:02:12.609Z,0
2019-01-06T03:03:11.119Z,0
2019-01-06T03:04:09.691Z,0
2019-01-06T03:06:32.554Z,0
2019-01-06T03:07:31.407Z,0
2019-01-06T03:08:30.236Z,0
2019-01-06T03:09:28.833Z,0
2019-01-06T03:10:27.574Z,0
2019-01-06T03:11:26.101Z,0
2019-01-06T03:12:24.680Z,0
2019-01-06T03:13:23.468Z,0
2019-01-06T03:14:21.995Z,0
2019-01-06T03:15:20.618Z,0
2019-01-06T03:16:19.167Z,0
2019-01-06T03:17:17.701Z,0
2019-01-06T03:18:16.260Z,0
2019-01-06T03:19:15.258Z,0
2019-01-06T03:20:13.925Z,0
2019-01-06T03:21:12.478Z,0
2019-01-06T03:22:11.152Z,0
2019-01-06T03:23:09.696Z,0
2019-01-06T03:24:08.175Z,0
2019-01-06T03:25:06.703Z,0
2019-01-06T03:26:05.267Z,0
2019-01-06T03:27:03.827Z,0
2019-01-06T03:28:02.365Z,0
2019-01-06T03:29:00.899Z,0
2019-01-06T03:29:59.513Z,0
2019-01-06T03:30:58.223Z,0
2019-01-06T03:31:56.799Z,0
2019-01-06T03:32:55.501Z,0
2019-01-06T03:33:54.048Z,0
2019-01-06T03:34:52.624Z,0
2019-01-06T03:35:51.339Z,0
2019-01-06T03:36:49.911Z,0
2019-01-06T03:39:30.257Z,0
2019-01-06T03:40:28.832Z,0
2019-01-06T03:41:27.750Z,0
2019-01-06T03:42:26.289Z,0
2019-01-06T03:43:24.807Z,0
2019-01-06T03:44:23.588Z,0
2019-01-06T03:45:22.179Z,0
2019-01-06T03:46:20.755Z,0
2019-01-06T03:47:19.642Z,0
2019-01-06T03:48:18.234Z,0
2019-01-06T03:49:16.972Z,0
2019-01-06T03:50:15.504Z,0
2019-01-06T03:51:14.078Z,0
2019-01-06T03:52:12.657Z,0
2019-01-06T03:53:11.324Z,0
2019-01-06T03:54:09.983Z,0
2019-01-06T03:55:08.678Z,0
2019-01-06T03:56:07.528Z,0
2019-01-06T03:57:06.066Z,0
2019-01-06T03:58:04.609Z,0
2019-01-06T03:59:03.164Z,0
2019-01-06T04:00:01.905Z,0
2019-01-06T04:01:00.330Z,0
2019-01-06T04:01:58.842Z,0
2019-01-06T04:02:57.651Z,0
2019-01-06T04:03:56.221Z,0
2019-01-06T04:04:54.869Z,0
2019-01-06T04:05:53.696Z,0
2019-01-06T04:06:52.214Z,0
2019-01-06T04:07:50.757Z,0
2019-01-06T04:08:49.379Z,0
2019-01-06T04:09:47.893Z,0
2019-01-06T04:10:46.462Z,0
2019-01-06T04:11:44.959Z,0
2019-01-06T04:12:43.850Z,0
2019-01-06T04:13:42.439Z,0
2019-01-06T04:14:41.064Z,0
2019-01-06T04:15:39.861Z,0
2019-01-06T04:16:38.421Z,0
2019-01-06T04:17:36.895Z,0
2019-01-06T04:18:35.645Z,0
2019-01-06T04:19:34.072Z,0
2019-01-06T04:20:32.661Z,0
2019-01-06T04:21:31.691Z,0
2019-01-06T04:22:30.255Z,0
2019-01-06T04:23:28.800Z,0
2019-01-06T04:24:27.565Z,0
2019-01-06T04:25:26.208Z,0
2019-01-06T04:26:24.771Z,0
2019-01-06T04:27:23.768Z,0
2019-01-06T04:28:22.307Z,0
2019-01-06T04:29:20.930Z,0
2019-01-06T04:30:19.642Z,0
2019-01-06T04:31:18.154Z,0
2019-01-06T04:32:16.715Z,0
2019-01-06T04:33:15.196Z,0
2019-01-06T04:34:13.755Z,0
2019-01-06T04:35:12.370Z,0
2019-01-06T04:36:10.964Z,0
2019-01-06T04:37:09.706Z,0
2019-01-06T04:38:08.229Z,0
2019-01-06T04:39:06.906Z,0
2019-01-06T04:40:05.742Z,0
2019-01-06T04:41:04.366Z,0
2019-01-06T04:42:02.947Z,0
2019-01-06T04:43:02.259Z,0
2019-01-06T04:44:00.774Z,0
2019-01-06T04:44:59.375Z,0
2019-01-06T04:45:57.903Z,0
2019-01-06T04:46:56.780Z,0
2019-01-06T04:47:55.030Z,0
2019-01-06T04:48:53.551Z,0
2019-01-06T04:49:52.118Z,0
2019-01-06T04:50:50.647Z,0
2019-01-06T04:51:49.308Z,0
2019-01-06T04:52:48.077Z,0
2019-01-06T04:53:46.633Z,0
2019-01-06T04:54:45.224Z,0
2019-01-06T04:55:43.865Z,0
2019-01-06T04:56:42.396Z,0
2019-01-06T04:57:41.047Z,0
2019-01-06T04:58:39.688Z,0
2019-01-06T04:59:38.306Z,0
2019-01-06T05:00:36.895Z,0
2019-01-06T05:01:35.848Z,0
2019-01-06T05:02:34.432Z,0
2019-01-06T05:03:32.942Z,0
2019-01-06T05:04:31.609Z,0
2019-01-06T05:05:30.283Z,0
2019-01-06T05:06:28.873Z,0
2019-01-06T05:07:27.749Z,0
2019-01-06T05:08:26.288Z,0
2019-01-06T05:09:24.853Z,0
2019-01-06T05:10:23.745Z,0
2019-01-06T05:11:22.265Z,0
2019-01-06T05:12:20.774Z,0
2019-01-06T05:13:19.332Z,0
2019-01-06T05:14:17.900Z,0
2019-01-06T05:15:16.386Z,0
2019-01-06T05:16:14.923Z,0
2019-01-06T05:17:13.441Z,0
2019-01-06T05:18:11.979Z,0
2019-01-06T05:19:10.497Z,0
2019-01-06T05:20:08.994Z,0
2019-01-06T05:21:07.671Z,0
2019-01-06T05:22:06.210Z,0
2019-01-06T05:23:04.792Z,0
2019-01-06T05:24:03.708Z,0
2019-01-06T05:25:02.310Z,0
2019-01-06T05:26:00.906Z,0
2019-01-06T05:26:59.494Z,0
2019-01-06T05:27:58.001Z,0
2019-01-06T05:28:56.587Z,0
2019-01-06T05:29:55.156Z,0
2019-01-06T05:30:53.682Z,0
2019-01-06T05:31:52.231Z,0
2019-01-06T05:32:51.319Z,0
2019-01-06T05:33:50.000Z,0
2019-01-06T05:34:48.488Z,0
2019-01-06T05:35:47.136Z,0
2019-01-06T05:36:45.747Z,0
2019-01-06T05:37:44.278Z,0
2019-01-06T05:38:42.822Z,0
2019-01-06T05:39:41.409Z,0
2019-01-06T05:40:40.190Z,0
2019-01-06T05:41:38.678Z,0
2019-01-06T05:42:37.502Z,0
2019-01-06T05:43:36.254Z,0
2019-01-06T05:44:34.794Z,0
2019-01-06T05:45:33.295Z,0
2019-01-06T05:46:31.880Z,0
2019-01-06T05:47:30.410Z,0
2019-01-06T05:48:28.927Z,0
2019-01-06T05:49:27.576Z,0
2019-01-06T05:50:26.323Z,0
2019-01-06T05:51:24.977Z,0
2019-01-06T05:52:23.915Z,0
2019-01-06T05:53:22.442Z,0
2019-01-06T05:54:21.005Z,0
2019-01-06T05:55:19.556Z,0
2019-01-06T05:56:18.041Z,0
2019-01-06T05:57:16.577Z,0
2019-01-06T05:58:15.123Z,0
2019-01-06T05:59:13.685Z,0
2019-01-06T06:00:12.187Z,0
2019-01-06T06:01:10.760Z,0
2019-01-06T06:02:09.358Z,0
2019-01-06T06:03:08.021Z,0
2019-01-06T06:04:06.568Z,0
2019-01-06T06:05:05.240Z,0
2019-01-06T06:06:03.898Z,0
2019-01-06T06:08:44.225Z,0
2019-01-06T06:09:42.719Z,0
2019-01-06T06:10:41.246Z,0
2019-01-06T06:11:39.802Z,0
2019-01-06T06:12:38.393Z,0
2019-01-06T06:13:36.893Z,0
2019-01-06T06:14:35.766Z,0
2019-01-06T06:15:34.543Z,0
2019-01-06T06:16:32.938Z,0
2019-01-06T06:17:31.747Z,0
2019-01-06T06:20:11.803Z,0
2019-01-06T06:21:10.307Z,0
2019-01-06T06:22:08.871Z,0
2019-01-06T06:23:08.268Z,0
2019-01-06T06:24:06.752Z,0
2019-01-06T06:25:05.298Z,0
2019-01-06T06:26:03.826Z,0
2019-01-06T06:27:02.381Z,0
2019-01-06T06:36:57.419Z,0
2019-01-06T06:37:56.082Z,0
2019-01-06T06:38:54.642Z,0
2019-01-06T06:39:53.450Z,0
2019-01-06T06:40:52.165Z,0
2019-01-06T06:41:50.742Z,0
2019-01-06T06:42:49.453Z,0
2019-01-06T06:43:47.959Z,0
2019-01-06T06:44:46.502Z,0
2019-01-06T06:45:44.974Z,0
2019-01-06T06:46:43.529Z,0
2019-01-06T06:47:42.192Z,0
2019-01-06T06:48:40.824Z,0
2019-01-06T06:49:39.582Z,0
2019-01-06T06:50:38.142Z,0
2019-01-06T06:51:36.954Z,0
2019-01-06T06:52:35.490Z,0
2019-01-06T06:53:34.057Z,0
2019-01-06T06:54:32.661Z,4
2019-01-06T06:55:31.254Z,4
2019-01-06T06:56:30.094Z,0
2019-01-06T06:57:28.653Z,0
2019-01-06T06:58:27.390Z,4
2019-01-06T06:59:25.941Z,4
2019-01-06T07:00:24.428Z,0
2019-01-06T07:01:23.174Z,4
2019-01-06T07:02:21.729Z,4
2019-01-06T07:03:20.234Z,8
2019-01-06T07:04:18.814Z,4
2019-01-06T07:05:17.861Z,8
2019-01-06T07:06:16.681Z,8
2019-01-06T07:07:15.341Z,12
2019-01-06T07:08:14.015Z,12
2019-01-06T07:09:12.701Z,12
2019-01-06T07:10:11.662Z,16
2019-01-06T07:11:10.225Z,16
2019-01-06T07:12:08.918Z,16
2019-01-06T07:13:07.437Z,20
2019-01-06T07:14:06.118Z,20
2019-01-06T07:15:04.695Z,24
2019-01-06T07:16:03.556Z,24
2019-01-06T07:17:02.241Z,28
2019-01-06T07:18:00.784Z,28
2019-01-06T07:18:59.479Z,32
2019-01-06T07:19:58.035Z,36
2019-01-06T07:20:56.618Z,36
2019-01-06T07:21:55.123Z,40
2019-01-06T07:22:53.974Z,40
2019-01-06T07:23:52.545Z,44
2019-01-06T07:24:51.241Z,40
2019-01-06T07:25:50.130Z,44
2019-01-06T07:26:48.678Z,48
2019-01-06T07:27:47.614Z,48
2019-01-06T07:28:46.195Z,48
2019-01-06T07:29:44.858Z,56
2019-01-06T07:30:43.723Z,56
2019-01-06T07:31:42.436Z,56
2019-01-06T07:32:41.300Z,60
2019-01-06T07:35:21.724Z,64
2019-01-06T07:36:20.253Z,68
2019-01-06T07:37:18.795Z,68
2019-01-06T07:38:17.780Z,72
2019-01-06T07:39:16.290Z,76
2019-01-06T07:40:14.999Z,76
2019-01-06T07:41:13.645Z,76
2019-01-06T07:42:12.205Z,80
2019-01-06T07:43:10.788Z,80
2019-01-06T07:44:09.495Z,84
2019-01-06T07:45:08.220Z,92
2019-01-06T07:46:06.914Z,100
2019-01-06T07:47:05.697Z,100
2019-01-06T07:48:04.262Z,104
2019-01-06T07:50:44.487Z,120
2019-01-06T07:51:44.884Z,128
2019-01-06T07:52:42.049Z,152
2019-01-06T07:53:40.629Z,152
2019-01-06T07:54:39.252Z,156
2019-01-06T07:55:37.809Z,144
2019-01-06T07:56:36.529Z,168
2019-01-06T07:57:35.127Z,172
2019-01-06T07:58:33.986Z,184
2019-01-06T07:59:32.496Z,192
2019-01-06T08:00:31.093Z,196
2019-01-06T08:01:29.848Z,160
2019-01-06T08:02:28.422Z,176
2019-01-06T08:03:26.982Z,176
2019-01-06T08:04:25.544Z,188
2019-01-06T08:07:05.995Z,216
2019-01-06T08:08:04.619Z,232
2019-01-06T08:09:03.620Z,260
2019-01-06T08:12:38.455Z,276
2019-01-06T08:13:37.375Z,280
2019-01-06T08:14:35.971Z,284
2019-01-06T08:15:34.678Z,288
2019-01-06T08:16:33.764Z,316
2019-01-06T08:17:32.512Z,320
2019-01-06T08:18:31.098Z,304
2019-01-06T08:19:29.636Z,312
2019-01-06T08:20:28.176Z,324
2019-01-06T08:21:26.815Z,320
2019-01-06T08:22:25.729Z,336
2019-01-06T08:23:24.287Z,364
2019-01-06T08:26:04.547Z,376
2019-01-06T08:27:03.087Z,384
2019-01-06T08:28:01.609Z,412
2019-01-06T08:29:00.320Z,396
2019-01-06T08:29:58.830Z,404
2019-01-06T08:32:39.208Z,388
2019-01-06T08:33:37.989Z,372
2019-01-06T08:36:18.360Z,348
2019-01-06T08:37:17.212Z,332
2019-01-06T08:38:16.217Z,296
2019-01-06T08:39:14.547Z,308
2019-01-06T08:40:13.192Z,348
2019-01-06T08:41:11.777Z,360
2019-01-06T08:42:10.766Z,376
2019-01-06T08:43:09.269Z,416
2019-01-06T08:44:08.087Z,440
2019-01-06T08:45:06.716Z,460
2019-01-06T08:46:05.370Z,436
2019-01-06T08:47:04.187Z,420
2019-01-06T08:48:02.770Z,412
2019-01-06T08:49:01.605Z,428
2019-01-06T08:50:00.195Z,448
2019-01-06T08:50:58.723Z,480
2019-01-06T08:51:57.418Z,476
2019-01-06T08:52:55.804Z,444
2019-01-06T08:53:54.353Z,428
2019-01-06T08:54:52.899Z,436
2019-01-06T08:55:51.823Z,420
2019-01-06T08:56:50.378Z,392
2019-01-06T08:57:48.916Z,432
2019-01-06T08:58:47.811Z,496
2019-01-06T08:59:47.272Z,524
2019-01-06T09:00:45.916Z,548
2019-01-06T09:01:44.411Z,564
2019-01-06T09:02:42.960Z,608
2019-01-06T09:03:42.031Z,624
2019-01-06T09:04:40.539Z,624
2019-01-06T09:05:39.230Z,616
2019-01-06T09:06:37.911Z,664
2019-01-06T09:07:36.486Z,748
2019-01-06T09:08:35.105Z,728
2019-01-06T09:11:15.567Z,760
2019-01-06T09:12:14.278Z,820
2019-01-06T09:13:12.817Z,836
2019-01-06T09:14:11.623Z,748
2019-01-06T09:15:10.385Z,796
2019-01-06T09:16:08.861Z,812
2019-01-06T09:17:07.586Z,796
2019-01-06T09:18:06.310Z,720
2019-01-06T09:19:04.835Z,624
2019-01-06T09:20:03.463Z,648
2019-01-06T09:21:02.281Z,688
2019-01-06T09:22:01.133Z,728
2019-01-06T09:23:00.022Z,712
2019-01-06T09:23:58.583Z,780
2019-01-06T09:24:57.176Z,732
2019-01-06T09:25:55.702Z,800
2019-01-06T09:26:54.318Z,800
2019-01-06T09:27:52.899Z,756
2019-01-06T09:39:21.840Z,832
2019-01-06T09:40:20.411Z,820
2019-01-06T09:41:19.055Z,764
2019-01-06T09:42:17.721Z,752
2019-01-06T09:43:16.343Z,692
2019-01-06T09:44:14.925Z,672
2019-01-06T09:45:13.913Z,652
2019-01-06T09:46:12.504Z,640
2019-01-06T09:47:11.232Z,588
2019-01-06T09:48:09.870Z,576
2019-01-06T09:49:08.573Z,596
2019-01-06T09:50:07.410Z,720
2019-01-06T09:51:06.108Z,1036
2019-01-06T09:52:04.714Z,1148
2019-01-06T09:53:03.465Z,1292
2019-01-06T09:54:01.985Z,1404
2019-01-06T09:55:00.628Z,1284
2019-01-06T09:55:59.188Z,1396
2019-01-06T09:56:57.935Z,1472
2019-01-06T09:57:56.954Z,1324
2019-01-06T09:58:55.776Z,1136
2019-01-06T09:59:54.348Z,880
2019-01-06T10:00:52.886Z,664
2019-01-06T10:01:52.848Z,700
2019-01-06T10:02:50.367Z,644
2019-01-06T10:03:48.912Z,656
2019-01-06T10:04:47.541Z,724
2019-01-06T10:05:46.139Z,824
2019-01-06T10:06:44.749Z,848
2019-01-06T10:07:43.313Z,948
2019-01-06T10:08:42.128Z,924
2019-01-06T10:09:40.724Z,1052
2019-01-06T10:10:39.551Z,1152
2019-01-06T10:11:38.140Z,1040
2019-01-06T10:12:36.621Z,948
2019-01-06T10:13:35.223Z,940
2019-01-06T10:14:33.780Z,1004
2019-01-06T10:15:32.548Z,912
2019-01-06T10:16:31.105Z,1068
2019-01-06T10:17:29.968Z,1108
2019-01-06T10:18:28.525Z,1036
2019-01-06T10:19:27.317Z,912
2019-01-06T10:20:25.825Z,832
2019-01-06T10:21:24.717Z,920
2019-01-06T10:22:23.029Z,984
2019-01-06T10:23:22.011Z,904
2019-01-06T10:24:20.587Z,828
2019-01-06T10:25:19.365Z,752
2019-01-06T10:26:17.907Z,724
2019-01-06T10:27:16.472Z,728
2019-01-06T10:28:15.019Z,760
2019-01-06T10:29:13.972Z,736
2019-01-06T10:30:13.373Z,660
2019-01-06T10:31:11.093Z,620
2019-01-06T10:32:09.934Z,640
2019-01-06T10:33:08.430Z,668
2019-01-06T10:34:06.959Z,708
2019-01-06T10:35:05.492Z,720
2019-01-06T10:36:04.077Z,688
2019-01-06T10:37:02.712Z,612
2019-01-06T10:38:01.229Z,660
2019-01-06T10:39:00.115Z,732
2019-01-06T10:39:58.669Z,872
2019-01-06T10:40:57.918Z,1008
2019-01-06T10:41:56.088Z,1068
2019-01-06T10:42:54.686Z,1152
2019-01-06T10:43:53.413Z,984
2019-01-06T10:44:52.216Z,904
2019-01-06T10:45:50.767Z,820
2019-01-06T10:46:49.428Z,844
2019-01-06T10:47:48.056Z,828
2019-01-06T10:48:46.796Z,876
2019-01-06T10:49:46.008Z,868
2019-01-06T10:50:44.565Z,928
2019-01-06T10:51:43.137Z,964
2019-01-06T10:52:41.794Z,1036
2019-01-06T10:53:40.293Z,1152
2019-01-06T10:54:38.862Z,1288
2019-01-06T10:55:37.445Z,1320
2019-01-06T10:56:36.327Z,1320
2019-01-06T10:57:34.938Z,1348
2019-01-06T10:58:33.523Z,1412
2019-01-06T10:59:32.229Z,1412
2019-01-06T11:00:30.747Z,1348
2019-01-06T11:01:29.529Z,1232
2019-01-06T11:02:29.407Z,1164
2019-01-06T11:03:26.720Z,1168
2019-01-06T11:04:25.552Z,1112
2019-01-06T11:05:24.319Z,1012
2019-01-06T11:06:22.928Z,1048
2019-01-06T11:07:21.521Z,1064
2019-01-06T11:08:20.334Z,984
2019-01-06T11:09:19.143Z,1012
2019-01-06T11:10:18.023Z,1016
2019-01-06T11:11:16.598Z,960
2019-01-06T11:12:15.205Z,936
2019-01-06T11:13:14.090Z,944
2019-01-06T11:14:12.646Z,1056
2019-01-06T11:15:11.273Z,1064
2019-01-06T11:16:10.134Z,1092
2019-01-06T11:17:08.683Z,1028
2019-01-06T11:18:07.203Z,1096
2019-01-06T11:19:05.865Z,1184
2019-01-06T11:20:04.405Z,1152
2019-01-06T11:21:03.709Z,1148
2019-01-06T11:22:02.243Z,1116
2019-01-06T11:23:00.758Z,1244
2019-01-06T11:23:59.295Z,1160
2019-01-06T11:24:57.811Z,1088
2019-01-06T11:25:56.360Z,1112
2019-01-06T11:26:55.104Z,1016
2019-01-06T11:27:53.956Z,1024
2019-01-06T11:28:52.535Z,952
2019-01-06T11:29:51.112Z,944
2019-01-06T11:30:49.918Z,972
2019-01-06T11:31:48.515Z,1116
2019-01-06T11:32:47.182Z,1120
2019-01-06T11:33:45.977Z,1072
2019-01-06T11:34:44.540Z,1028
2019-01-06T11:35:43.321Z,1088
2019-01-06T11:36:41.922Z,1036
2019-01-06T11:37:40.753Z,1128
2019-01-06T11:38:39.534Z,988
2019-01-06T11:39:38.343Z,972
2019-01-06T11:40:36.945Z,856
2019-01-06T11:41:35.563Z,960
2019-01-06T11:42:34.140Z,992
2019-01-06T11:43:32.716Z,916
2019-01-06T11:44:31.261Z,1076
2019-01-06T11:45:30.070Z,1132
2019-01-06T11:46:28.641Z,1108
2019-01-06T11:47:27.298Z,1176
2019-01-06T11:48:26.105Z,1288
2019-01-06T11:49:24.737Z,1372
2019-01-06T11:50:23.354Z,1320
2019-01-06T11:51:22.184Z,1168
2019-01-06T11:52:20.732Z,1168
2019-01-06T11:53:19.603Z,1128
2019-01-06T11:54:18.167Z,1168
2019-01-06T11:55:16.703Z,1144
2019-01-06T11:56:15.300Z,1196
2019-01-06T11:57:13.859Z,1044
2019-01-06T11:58:12.478Z,1016
2019-01-06T11:59:11.081Z,856
2019-01-06T12:00:09.910Z,1052
2019-01-06T12:01:08.501Z,892
2019-01-06T12:02:07.325Z,824
2019-01-06T12:03:05.938Z,848
2019-01-06T12:04:04.492Z,776
2019-01-06T12:05:03.067Z,764
2019-01-06T12:06:02.013Z,836
2019-01-06T12:07:00.965Z,952
2019-01-06T12:08:00.043Z,824
2019-01-06T12:08:58.900Z,800
2019-01-06T12:09:57.478Z,764
2019-01-06T12:10:56.008Z,716
2019-01-06T12:11:54.511Z,928
2019-01-06T12:12:53.087Z,876
2019-01-06T12:13:51.706Z,828
2019-01-06T12:14:50.643Z,804
2019-01-06T12:15:49.511Z,824
2019-01-06T12:18:29.671Z,784
2019-01-06T12:19:33.641Z,884
2019-01-06T12:20:27.016Z,876
2019-01-06T12:21:25.669Z,800
2019-01-06T12:22:24.354Z,804
2019-01-06T12:23:22.956Z,800
2019-01-06T12:24:21.648Z,856
2019-01-06T12:25:20.131Z,940
2019-01-06T12:26:18.706Z,924
2019-01-06T12:27:17.704Z,880
2019-01-06T12:28:16.443Z,960
2019-01-06T12:29:15.079Z,892
2019-01-06T12:30:13.591Z,888
2019-01-06T12:31:12.240Z,800
2019-01-06T12:32:10.851Z,828
2019-01-06T12:33:09.777Z,776
2019-01-06T12:34:08.412Z,856
2019-01-06T12:35:07.009Z,960
2019-01-06T12:36:05.722Z,916
2019-01-06T12:37:04.313Z,768
2019-01-06T12:38:02.926Z,748
2019-01-06T12:39:01.911Z,708
2019-01-06T12:40:00.473Z,728
2019-01-06T12:40:59.118Z,796
2019-01-06T12:41:57.752Z,824
2019-01-06T12:42:56.327Z,904
2019-01-06T12:43:54.858Z,884
2019-01-06T12:44:53.411Z,968
2019-01-06T12:45:51.942Z,960
2019-01-06T12:46:50.472Z,1016
2019-01-06T12:47:49.011Z,940
2019-01-06T12:48:48.136Z,936
2019-01-06T12:49:46.763Z,928
2019-01-06T12:50:45.381Z,896
2019-01-06T12:51:44.113Z,848
2019-01-06T12:52:42.647Z,800
2019-01-06T12:53:41.205Z,896
2019-01-06T12:54:39.958Z,924
2019-01-06T12:55:38.589Z,912
2019-01-06T12:56:37.161Z,760
2019-01-06T12:57:35.936Z,752
2019-01-06T12:58:34.507Z,680
2019-01-06T12:59:33.139Z,732
2019-01-06T13:00:31.758Z,672
2019-01-06T13:01:30.514Z,640
2019-01-06T13:02:29.246Z,620
2019-01-06T13:03:28.064Z,604
2019-01-06T13:04:26.856Z,584
2019-01-06T13:05:25.547Z,604
2019-01-06T13:06:24.164Z,676
2019-01-06T13:07:22.733Z,688
2019-01-06T13:08:21.438Z,828
2019-01-06T13:09:20.198Z,852
2019-01-06T13:10:18.965Z,992
2019-01-06T13:11:18.807Z,964
2019-01-06T13:12:17.303Z,928
2019-01-06T13:13:16.160Z,812
2019-01-06T13:14:14.667Z,800
2019-01-06T13:15:13.279Z,784
2019-01-06T13:16:11.956Z,868
2019-01-06T13:17:10.480Z,832
2019-01-06T13:18:09.013Z,788
2019-01-06T13:19:07.773Z,824
2019-01-06T13:20:06.420Z,800
2019-01-06T13:21:05.200Z,756
2019-01-06T13:22:03.840Z,628
2019-01-06T13:23:02.382Z,556
2019-01-06T13:27:24.689Z,640
2019-01-06T13:28:23.232Z,648
2019-01-06T13:29:21.905Z,600
2019-01-06T13:32:02.536Z,500
2019-01-06T13:33:01.096Z,448
2019-01-06T13:33:59.812Z,428
2019-01-06T13:34:58.335Z,424
2019-01-06T13:35:56.907Z,424
2019-01-06T13:36:55.919Z,480
2019-01-06T13:40:44.030Z,404
2019-01-06T13:41:42.630Z,440
2019-01-06T13:42:41.172Z,436
2019-01-06T13:43:40.023Z,472
2019-01-06T13:44:38.578Z,428
2019-01-06T13:48:17.703Z,488
2019-01-06T13:49:16.342Z,540
2019-01-06T13:50:14.940Z,528
2019-01-06T13:51:13.624Z,488
2019-01-06T13:52:12.412Z,452
2019-01-06T13:53:11.229Z,500
2019-01-06T13:54:10.036Z,520
2019-01-06T13:57:49.108Z,500
2019-01-06T14:00:29.454Z,428
2019-01-06T14:04:09.035Z,356
2019-01-06T14:05:08.086Z,372
2019-01-06T14:06:06.680Z,332
2019-01-06T14:07:05.437Z,396
2019-01-06T14:08:04.266Z,380
2019-01-06T14:09:03.024Z,444
2019-01-06T14:10:01.639Z,408
2019-01-06T14:11:00.348Z,424
2019-01-06T14:14:21.644Z,392
2019-01-06T14:17:06.054Z,372
2019-01-06T14:19:46.436Z,360
2019-01-06T14:20:44.973Z,360
2019-01-06T14:21:43.853Z,360
2019-01-06T14:22:42.443Z,348
2019-01-06T14:24:59.279Z,344
2019-01-06T14:25:57.927Z,372
2019-01-06T14:26:56.635Z,324
2019-01-06T14:27:55.307Z,320
2019-01-06T14:28:54.510Z,304
2019-01-06T14:29:53.064Z,252
2019-01-06T14:30:52.093Z,244
2019-01-06T14:31:50.635Z,248
2019-01-06T14:32:49.230Z,264
2019-01-06T14:33:47.848Z,296
2019-01-06T14:34:46.645Z,284
2019-01-06T14:35:45.174Z,288
2019-01-06T14:36:44.100Z,320
2019-01-06T14:37:42.678Z,288
2019-01-06T14:38:41.340Z,288
2019-01-06T14:39:39.941Z,280
2019-01-06T14:40:38.474Z,240
2019-01-06T14:41:37.034Z,228
2019-01-06T14:42:35.580Z,252
2019-01-06T14:43:34.121Z,228
2019-01-06T14:44:32.676Z,252
2019-01-06T14:45:31.289Z,224
2019-01-06T14:46:30.118Z,224
2019-01-06T14:47:28.660Z,216
2019-01-06T14:48:27.285Z,232
2019-01-06T14:49:26.092Z,208
2019-01-06T14:50:24.637Z,212
2019-01-06T14:51:23.328Z,196
2019-01-06T14:52:22.192Z,204
2019-01-06T14:53:20.837Z,200
2019-01-06T14:54:19.504Z,212
2019-01-06T14:55:18.288Z,188
2019-01-06T14:56:16.870Z,220
2019-01-06T14:57:15.814Z,212
2019-01-06T14:58:14.395Z,204
2019-01-06T14:59:12.939Z,180
2019-01-06T15:00:11.768Z,188
2019-01-06T15:01:10.342Z,192
2019-01-06T15:02:08.934Z,208
2019-01-06T15:03:07.977Z,188
2019-01-06T15:04:06.515Z,164
2019-01-06T15:05:05.193Z,164
2019-01-06T15:06:03.843Z,164
2019-01-06T15:07:02.437Z,168
2019-01-06T15:08:01.053Z,160
2019-01-06T15:09:00.289Z,156